sensor_id;sensor_type;location;lat;lon;timestamp;temperature;humidity
25128;DHT22;13107;51.304;6.866;2023-03-23T00:03:22;12.00;99.90
25128;DHT22;13107;51.304;6.866;2023-03-23T00:07:24;11.90;99.90
25128;DHT22;13107;51.304;6.866;2023-03-23T00:11:29;12.10;99.90
25128;DHT22;13107;51.304;6.866;2023-03-23T00:15:30;12.10;99.90
25128;DHT22;13107;51.304;6.866;2023-03-23T00:19:33;12.20;99.90
25128;DHT22;13107;51.304;6.866;2023-03-23T00:23:34;12.20;99.90
25128;DHT22;13107;51.304;6.866;2023-03-23T00:27:35;12.20;99.90
25128;DHT22;13107;51.304;6.866;2023-03-23T00:31:36;12.20;99.90
25128;DHT22;13107;51.304;6.866;2023-03-23T00:35:37;12.20;99.90
25128;DHT22;13107;51.304;6.866;2023-03-23T00:39:38;12.30;99.90
25128;DHT22;13107;51.304;6.866;2023-03-23T00:43:39;12.20;99.90
25128;DHT22;13107;51.304;6.866;2023-03-23T00:47:40;12.20;99.90
25128;DHT22;13107;51.304;6.866;2023-03-23T00:51:43;12.30;99.90
25128;DHT22;13107;51.304;6.866;2023-03-23T00:55:45;12.30;99.90
25128;DHT22;13107;51.304;6.866;2023-03-23T00:59:46;12.30;99.90
25128;DHT22;13107;51.304;6.866;2023-03-23T01:03:47;12.20;99.90
25128;DHT22;13107;51.304;6.866;2023-03-23T01:07:47;12.10;99.90
25128;DHT22;13107;51.304;6.866;2023-03-23T01:11:50;12.10;99.90
25128;DHT22;13107;51.304;6.866;2023-03-23T01:15:51;12.10;99.90
25128;DHT22;13107;51.304;6.866;2023-03-23T01:19:51;12.10;99.90
25128;DHT22;13107;51.304;6.866;2023-03-23T01:23:52;12.00;99.90
25128;DHT22;13107;51.304;6.866;2023-03-23T01:27:53;11.90;99.90
25128;DHT22;13107;51.304;6.866;2023-03-23T01:31:54;12.00;99.90
25128;DHT22;13107;51.304;6.866;2023-03-23T01:35:55;12.10;99.90
25128;DHT22;13107;51.304;6.866;2023-03-23T01:39:56;12.10;99.90
25128;DHT22;13107;51.304;6.866;2023-03-23T01:45:11;12.10;99.90
25128;DHT22;13107;51.304;6.866;2023-03-23T01:48:32;12.00;99.90
25128;DHT22;13107;51.304;6.866;2023-03-23T01:52:34;12.00;99.90
25128;DHT22;13107;51.304;6.866;2023-03-23T01:56:41;11.80;99.90
25128;DHT22;13107;51.304;6.866;2023-03-23T02:00:45;11.80;99.90
25128;DHT22;13107;51.304;6.866;2023-03-23T02:04:48;11.80;99.90
25128;DHT22;13107;51.304;6.866;2023-03-23T02:08:49;11.80;99.90
25128;DHT22;13107;51.304;6.866;2023-03-23T02:12:51;11.70;99.90
25128;DHT22;13107;51.304;6.866;2023-03-23T02:37:58;11.60;99.90
25128;DHT22;13107;51.304;6.866;2023-03-23T02:42:08;11.50;99.90
25128;DHT22;13107;51.304;6.866;2023-03-23T02:46:10;11.60;99.90
25128;DHT22;13107;51.304;6.866;2023-03-23T02:50:14;11.50;99.90
25128;DHT22;13107;51.304;6.866;2023-03-23T02:54:16;11.50;99.90
25128;DHT22;13107;51.304;6.866;2023-03-23T02:58:19;11.40;99.90
25128;DHT22;13107;51.304;6.866;2023-03-23T03:02:26;11.30;99.90
25128;DHT22;13107;51.304;6.866;2023-03-23T03:11:09;11.40;99.90
25128;DHT22;13107;51.304;6.866;2023-03-23T03:19:26;11.40;99.90
25128;DHT22;13107;51.304;6.866;2023-03-23T03:23:30;11.40;99.90
25128;DHT22;13107;51.304;6.866;2023-03-23T03:27:33;11.30;99.90
25128;DHT22;13107;51.304;6.866;2023-03-23T03:31:39;11.40;99.90
25128;DHT22;13107;51.304;6.866;2023-03-23T03:35:45;11.40;99.90
25128;DHT22;13107;51.304;6.866;2023-03-23T03:39:46;11.40;99.90
25128;DHT22;13107;51.304;6.866;2023-03-23T03:43:47;11.50;99.90
25128;DHT22;13107;51.304;6.866;2023-03-23T03:47:48;11.50;99.90
25128;DHT22;13107;51.304;6.866;2023-03-23T03:51:49;11.50;99.90
25128;DHT22;13107;51.304;6.866;2023-03-23T03:55:49;11.50;99.90
25128;DHT22;13107;51.304;6.866;2023-03-23T03:59:50;11.50;99.90
25128;DHT22;13107;51.304;6.866;2023-03-23T04:03:51;11.50;99.90
25128;DHT22;13107;51.304;6.866;2023-03-23T04:07:52;11.50;99.90
25128;DHT22;13107;51.304;6.866;2023-03-23T04:11:53;11.50;99.90
25128;DHT22;13107;51.304;6.866;2023-03-23T04:15:53;11.50;99.90
25128;DHT22;13107;51.304;6.866;2023-03-23T04:19:55;11.60;99.90
25128;DHT22;13107;51.304;6.866;2023-03-23T04:24:07;11.60;99.90
25128;DHT22;13107;51.304;6.866;2023-03-23T04:28:08;11.60;99.90
25128;DHT22;13107;51.304;6.866;2023-03-23T04:32:10;11.70;99.90
25128;DHT22;13107;51.304;6.866;2023-03-23T04:36:11;11.70;99.90
25128;DHT22;13107;51.304;6.866;2023-03-23T04:40:16;11.70;99.90
25128;DHT22;13107;51.304;6.866;2023-03-23T04:44:17;11.80;99.90
25128;DHT22;13107;51.304;6.866;2023-03-23T04:48:26;11.80;99.90
25128;DHT22;13107;51.304;6.866;2023-03-23T04:52:28;11.80;99.90
25128;DHT22;13107;51.304;6.866;2023-03-23T04:56:29;11.80;99.90
25128;DHT22;13107;51.304;6.866;2023-03-23T05:00:30;11.80;99.90
25128;DHT22;13107;51.304;6.866;2023-03-23T05:04:30;11.80;99.90
25128;DHT22;13107;51.304;6.866;2023-03-23T05:08:33;11.80;99.90
25128;DHT22;13107;51.304;6.866;2023-03-23T05:12:34;11.80;99.90
25128;DHT22;13107;51.304;6.866;2023-03-23T05:16:35;11.90;99.90
25128;DHT22;13107;51.304;6.866;2023-03-23T05:20:38;12.00;99.90
25128;DHT22;13107;51.304;6.866;2023-03-23T05:24:39;11.80;99.90
25128;DHT22;13107;51.304;6.866;2023-03-23T05:28:40;11.80;99.90
25128;DHT22;13107;51.304;6.866;2023-03-23T05:32:45;11.80;99.90
25128;DHT22;13107;51.304;6.866;2023-03-23T05:36:50;11.90;99.90
25128;DHT22;13107;51.304;6.866;2023-03-23T05:40:53;11.90;99.90
25128;DHT22;13107;51.304;6.866;2023-03-23T05:44:54;11.90;99.90
25128;DHT22;13107;51.304;6.866;2023-03-23T05:48:55;11.90;99.90
25128;DHT22;13107;51.304;6.866;2023-03-23T05:52:56;12.00;99.90
25128;DHT22;13107;51.304;6.866;2023-03-23T05:56:56;12.00;99.90
25128;DHT22;13107;51.304;6.866;2023-03-23T06:00:57;12.00;99.90
25128;DHT22;13107;51.304;6.866;2023-03-23T06:04:58;12.00;99.90
25128;DHT22;13107;51.304;6.866;2023-03-23T06:08:59;12.10;99.90
25128;DHT22;13107;51.304;6.866;2023-03-23T06:13:00;12.10;99.90
25128;DHT22;13107;51.304;6.866;2023-03-23T06:17:02;12.10;99.90
25128;DHT22;13107;51.304;6.866;2023-03-23T06:21:04;12.20;99.90
25128;DHT22;13107;51.304;6.866;2023-03-23T06:25:06;12.20;99.90
25128;DHT22;13107;51.304;6.866;2023-03-23T06:29:07;12.20;99.90
25128;DHT22;13107;51.304;6.866;2023-03-23T06:33:11;12.20;99.90
25128;DHT22;13107;51.304;6.866;2023-03-23T06:37:12;12.20;99.90
25128;DHT22;13107;51.304;6.866;2023-03-23T06:41:13;12.30;99.90
25128;DHT22;13107;51.304;6.866;2023-03-23T06:45:14;12.30;99.90
25128;DHT22;13107;51.304;6.866;2023-03-23T06:49:14;12.30;99.90
25128;DHT22;13107;51.304;6.866;2023-03-23T06:53:16;12.30;99.90
25128;DHT22;13107;51.304;6.866;2023-03-23T06:57:17;12.40;99.90
25128;DHT22;13107;51.304;6.866;2023-03-23T07:01:19;12.30;99.90
25128;DHT22;13107;51.304;6.866;2023-03-23T07:05:20;12.40;99.90
25128;DHT22;13107;51.304;6.866;2023-03-23T07:09:21;12.40;99.90
25128;DHT22;13107;51.304;6.866;2023-03-23T07:13:23;12.40;99.90
25128;DHT22;13107;51.304;6.866;2023-03-23T07:17:23;12.40;99.90
25128;DHT22;13107;51.304;6.866;2023-03-23T07:21:24;12.30;99.90
25128;DHT22;13107;51.304;6.866;2023-03-23T07:25:25;12.40;99.90
25128;DHT22;13107;51.304;6.866;2023-03-23T07:29:26;12.40;99.90
25128;DHT22;13107;51.304;6.866;2023-03-23T07:33:27;12.50;99.90
25128;DHT22;13107;51.304;6.866;2023-03-23T07:37:28;12.60;99.90
25128;DHT22;13107;51.304;6.866;2023-03-23T07:41:29;12.50;99.90
25128;DHT22;13107;51.304;6.866;2023-03-23T07:45:30;12.60;99.90
25128;DHT22;13107;51.304;6.866;2023-03-23T07:49:31;12.60;99.90
25128;DHT22;13107;51.304;6.866;2023-03-23T07:53:32;12.60;99.90
25128;DHT22;13107;51.304;6.866;2023-03-23T07:57:34;12.70;99.90
25128;DHT22;13107;51.304;6.866;2023-03-23T08:01:35;12.70;99.90
25128;DHT22;13107;51.304;6.866;2023-03-23T08:05:35;12.70;99.90
25128;DHT22;13107;51.304;6.866;2023-03-23T08:09:36;12.70;99.90
25128;DHT22;13107;51.304;6.866;2023-03-23T08:13:37;12.80;99.90
25128;DHT22;13107;51.304;6.866;2023-03-23T08:17:40;12.80;99.90
25128;DHT22;13107;51.304;6.866;2023-03-23T08:21:41;12.90;99.90
25128;DHT22;13107;51.304;6.866;2023-03-23T08:25:42;12.90;99.90
25128;DHT22;13107;51.304;6.866;2023-03-23T08:29:47;12.90;99.90
25128;DHT22;13107;51.304;6.866;2023-03-23T08:33:48;13.00;99.90
25128;DHT22;13107;51.304;6.866;2023-03-23T08:37:49;13.10;99.90
25128;DHT22;13107;51.304;6.866;2023-03-23T08:41:54;13.10;99.90
25128;DHT22;13107;51.304;6.866;2023-03-23T08:45:55;13.20;99.90
25128;DHT22;13107;51.304;6.866;2023-03-23T08:49:56;13.20;99.90
25128;DHT22;13107;51.304;6.866;2023-03-23T08:53:57;13.30;99.90
25128;DHT22;13107;51.304;6.866;2023-03-23T08:57:57;13.40;99.90
25128;DHT22;13107;51.304;6.866;2023-03-23T09:01:58;13.50;99.90
25128;DHT22;13107;51.304;6.866;2023-03-23T09:06:00;13.40;99.90
25128;DHT22;13107;51.304;6.866;2023-03-23T09:10:02;13.40;99.90
25128;DHT22;13107;51.304;6.866;2023-03-23T09:14:04;13.40;99.90
25128;DHT22;13107;51.304;6.866;2023-03-23T09:18:06;13.30;99.90
25128;DHT22;13107;51.304;6.866;2023-03-23T09:22:07;13.10;99.90
25128;DHT22;13107;51.304;6.866;2023-03-23T09:26:08;13.10;99.90
25128;DHT22;13107;51.304;6.866;2023-03-23T09:30:11;13.20;99.90
25128;DHT22;13107;51.304;6.866;2023-03-23T09:34:13;13.40;99.90
25128;DHT22;13107;51.304;6.866;2023-03-23T09:38:15;13.40;99.90
25128;DHT22;13107;51.304;6.866;2023-03-23T09:42:30;13.30;99.90
25128;DHT22;13107;51.304;6.866;2023-03-23T09:51:11;13.40;99.90
25128;DHT22;13107;51.304;6.866;2023-03-23T09:55:16;13.30;99.90
25128;DHT22;13107;51.304;6.866;2023-03-23T10:03:41;12.70;99.90
25128;DHT22;13107;51.304;6.866;2023-03-23T10:07:43;11.50;99.90
25128;DHT22;13107;51.304;6.866;2023-03-23T10:11:47;10.90;99.90
25128;DHT22;13107;51.304;6.866;2023-03-23T10:15:50;10.40;99.90
25128;DHT22;13107;51.304;6.866;2023-03-23T10:24:15;10.20;99.90
25128;DHT22;13107;51.304;6.866;2023-03-23T10:28:32;10.10;99.90
25128;DHT22;13107;51.304;6.866;2023-03-23T10:41:24;10.00;99.90
25128;DHT22;13107;51.304;6.866;2023-03-23T10:45:27;10.00;99.90
25128;DHT22;13107;51.304;6.866;2023-03-23T10:49:42;10.00;99.90
25128;DHT22;13107;51.304;6.866;2023-03-23T10:53:49;9.90;99.90
25128;DHT22;13107;51.304;6.866;2023-03-23T10:58:01;9.80;99.90
25128;DHT22;13107;51.304;6.866;2023-03-23T11:02:16;9.90;99.90
25128;DHT22;13107;51.304;6.866;2023-03-23T11:06:23;9.90;99.90
25128;DHT22;13107;51.304;6.866;2023-03-23T11:10:33;9.80;99.90
25128;DHT22;13107;51.304;6.866;2023-03-23T11:14:35;9.80;99.90
25128;DHT22;13107;51.304;6.866;2023-03-23T11:18:41;9.80;99.90
25128;DHT22;13107;51.304;6.866;2023-03-23T11:22:43;9.80;99.90
25128;DHT22;13107;51.304;6.866;2023-03-23T11:26:45;9.90;99.90
25128;DHT22;13107;51.304;6.866;2023-03-23T11:30:46;9.90;99.90
25128;DHT22;13107;51.304;6.866;2023-03-23T11:34:48;10.00;99.90
25128;DHT22;13107;51.304;6.866;2023-03-23T11:38:54;10.20;99.90
25128;DHT22;13107;51.304;6.866;2023-03-23T11:43:07;10.40;99.90
25128;DHT22;13107;51.304;6.866;2023-03-23T11:47:20;10.50;99.90
25128;DHT22;13107;51.304;6.866;2023-03-23T11:59:46;10.60;99.90
25128;DHT22;13107;51.304;6.866;2023-03-23T12:08:16;10.90;99.90
25128;DHT22;13107;51.304;6.866;2023-03-23T12:12:40;10.80;99.90
25128;DHT22;13107;51.304;6.866;2023-03-23T12:21:39;10.80;99.90
25128;DHT22;13107;51.304;6.866;2023-03-23T12:34:43;10.90;99.90
25128;DHT22;13107;51.304;6.866;2023-03-23T12:39:10;11.00;99.90
25128;DHT22;13107;51.304;6.866;2023-03-23T12:43:38;11.00;99.90
25128;DHT22;13107;51.304;6.866;2023-03-23T12:47:46;11.00;99.90
25128;DHT22;13107;51.304;6.866;2023-03-23T12:56:10;11.10;99.90
25128;DHT22;13107;51.304;6.866;2023-03-23T13:04:26;11.10;99.90
25128;DHT22;13107;51.304;6.866;2023-03-23T13:08:33;11.20;99.90
25128;DHT22;13107;51.304;6.866;2023-03-23T13:12:36;11.50;99.90
25128;DHT22;13107;51.304;6.866;2023-03-23T13:16:46;11.70;99.90
25128;DHT22;13107;51.304;6.866;2023-03-23T13:21:07;12.80;99.90
25128;DHT22;13107;51.304;6.866;2023-03-23T13:26:01;14.10;99.90
25128;DHT22;13107;51.304;6.866;2023-03-23T13:29:45;15.50;99.90
25128;DHT22;13107;51.304;6.866;2023-03-23T13:33:50;15.60;99.90
25128;DHT22;13107;51.304;6.866;2023-03-23T13:37:52;14.70;99.90
25128;DHT22;13107;51.304;6.866;2023-03-23T13:54:30;13.10;99.90
25128;DHT22;13107;51.304;6.866;2023-03-23T13:58:31;13.00;99.90
25128;DHT22;13107;51.304;6.866;2023-03-23T14:02:42;12.80;99.90
25128;DHT22;13107;51.304;6.866;2023-03-23T14:06:44;12.70;99.90
25128;DHT22;13107;51.304;6.866;2023-03-23T14:10:59;12.60;99.90
25128;DHT22;13107;51.304;6.866;2023-03-23T14:15:04;12.50;99.90
25128;DHT22;13107;51.304;6.866;2023-03-23T14:19:26;12.30;99.90
25128;DHT22;13107;51.304;6.866;2023-03-23T14:23:32;12.30;99.90
25128;DHT22;13107;51.304;6.866;2023-03-23T14:27:33;12.90;99.90
25128;DHT22;13107;51.304;6.866;2023-03-23T14:31:35;14.90;99.90
25128;DHT22;13107;51.304;6.866;2023-03-23T14:35:37;16.70;99.90
25128;DHT22;13107;51.304;6.866;2023-03-23T14:39:40;16.20;99.90
25128;DHT22;13107;51.304;6.866;2023-03-23T14:43:44;14.80;99.90
25128;DHT22;13107;51.304;6.866;2023-03-23T14:47:54;14.20;99.90
25128;DHT22;13107;51.304;6.866;2023-03-23T14:52:13;13.90;99.90
25128;DHT22;13107;51.304;6.866;2023-03-23T14:56:16;13.50;99.90
25128;DHT22;13107;51.304;6.866;2023-03-23T15:00:23;13.30;99.90
25128;DHT22;13107;51.304;6.866;2023-03-23T15:04:26;13.30;99.90
25128;DHT22;13107;51.304;6.866;2023-03-23T15:08:30;13.20;99.90
25128;DHT22;13107;51.304;6.866;2023-03-23T15:12:31;13.10;99.90
25128;DHT22;13107;51.304;6.866;2023-03-23T15:16:33;13.00;99.90
25128;DHT22;13107;51.304;6.866;2023-03-23T15:20:48;13.30;99.90
25128;DHT22;13107;51.304;6.866;2023-03-23T15:24:51;13.50;99.90
25128;DHT22;13107;51.304;6.866;2023-03-23T15:33:13;13.50;99.90
25128;DHT22;13107;51.304;6.866;2023-03-23T15:37:29;13.50;99.90
25128;DHT22;13107;51.304;6.866;2023-03-23T15:41:32;13.40;99.90
25128;DHT22;13107;51.304;6.866;2023-03-23T15:45:35;13.40;99.90
25128;DHT22;13107;51.304;6.866;2023-03-23T15:49:36;13.50;99.90
25128;DHT22;13107;51.304;6.866;2023-03-23T15:53:37;13.60;99.90
25128;DHT22;13107;51.304;6.866;2023-03-23T15:57:41;13.60;99.90
25128;DHT22;13107;51.304;6.866;2023-03-23T16:01:42;13.70;99.90
25128;DHT22;13107;51.304;6.866;2023-03-23T16:05:44;13.60;99.90
25128;DHT22;13107;51.304;6.866;2023-03-23T16:09:46;13.50;99.90
25128;DHT22;13107;51.304;6.866;2023-03-23T16:13:48;13.50;99.90
25128;DHT22;13107;51.304;6.866;2023-03-23T16:17:49;13.60;99.90
25128;DHT22;13107;51.304;6.866;2023-03-23T16:21:51;13.70;99.90
25128;DHT22;13107;51.304;6.866;2023-03-23T16:25:53;13.70;99.90
25128;DHT22;13107;51.304;6.866;2023-03-23T16:29:55;13.60;99.90
25128;DHT22;13107;51.304;6.866;2023-03-23T16:34:05;13.60;99.90
25128;DHT22;13107;51.304;6.866;2023-03-23T16:38:12;13.60;99.90
25128;DHT22;13107;51.304;6.866;2023-03-23T16:42:14;13.60;99.90
25128;DHT22;13107;51.304;6.866;2023-03-23T16:46:15;13.50;99.90
25128;DHT22;13107;51.304;6.866;2023-03-23T16:50:17;13.60;99.90
25128;DHT22;13107;51.304;6.866;2023-03-23T16:54:19;13.50;99.90
25128;DHT22;13107;51.304;6.866;2023-03-23T16:58:21;13.30;99.90
25128;DHT22;13107;51.304;6.866;2023-03-23T17:02:23;13.30;99.90
25128;DHT22;13107;51.304;6.866;2023-03-23T17:06:25;13.40;99.90
25128;DHT22;13107;51.304;6.866;2023-03-23T17:10:28;13.40;99.90
25128;DHT22;13107;51.304;6.866;2023-03-23T17:14:30;13.30;99.90
25128;DHT22;13107;51.304;6.866;2023-03-23T17:18:32;13.30;99.90
25128;DHT22;13107;51.304;6.866;2023-03-23T17:22:35;13.30;99.90
25128;DHT22;13107;51.304;6.866;2023-03-23T17:26:37;13.30;99.90
25128;DHT22;13107;51.304;6.866;2023-03-23T17:30:41;13.40;99.90
25128;DHT22;13107;51.304;6.866;2023-03-23T17:34:43;13.40;99.90
25128;DHT22;13107;51.304;6.866;2023-03-23T17:38:44;13.40;99.90
25128;DHT22;13107;51.304;6.866;2023-03-23T17:42:46;13.40;99.90
25128;DHT22;13107;51.304;6.866;2023-03-23T17:46:47;13.40;99.90
25128;DHT22;13107;51.304;6.866;2023-03-23T17:50:53;13.40;99.90
25128;DHT22;13107;51.304;6.866;2023-03-23T17:54:57;13.30;99.90
25128;DHT22;13107;51.304;6.866;2023-03-23T17:58:59;13.10;99.90
25128;DHT22;13107;51.304;6.866;2023-03-23T18:03:01;13.10;99.90
25128;DHT22;13107;51.304;6.866;2023-03-23T18:07:03;13.00;99.90
25128;DHT22;13107;51.304;6.866;2023-03-23T18:11:05;13.00;99.90
25128;DHT22;13107;51.304;6.866;2023-03-23T18:15:08;13.00;99.90
25128;DHT22;13107;51.304;6.866;2023-03-23T18:19:10;12.90;99.90
25128;DHT22;13107;51.304;6.866;2023-03-23T18:23:12;12.90;99.90
25128;DHT22;13107;51.304;6.866;2023-03-23T18:27:14;12.80;99.90
25128;DHT22;13107;51.304;6.866;2023-03-23T18:31:17;12.90;99.90
25128;DHT22;13107;51.304;6.866;2023-03-23T18:35:20;12.80;99.90
25128;DHT22;13107;51.304;6.866;2023-03-23T18:39:21;12.80;99.90
25128;DHT22;13107;51.304;6.866;2023-03-23T18:43:23;12.90;99.90
25128;DHT22;13107;51.304;6.866;2023-03-23T18:47:25;12.90;99.90
25128;DHT22;13107;51.304;6.866;2023-03-23T18:51:27;12.90;99.90
25128;DHT22;13107;51.304;6.866;2023-03-23T18:55:31;12.90;99.90
25128;DHT22;13107;51.304;6.866;2023-03-23T18:59:32;12.70;99.90
25128;DHT22;13107;51.304;6.866;2023-03-23T19:03:37;12.70;99.90
25128;DHT22;13107;51.304;6.866;2023-03-23T19:07:39;12.60;99.90
25128;DHT22;13107;51.304;6.866;2023-03-23T19:11:41;12.60;99.90
25128;DHT22;13107;51.304;6.866;2023-03-23T19:15:42;12.60;99.90
25128;DHT22;13107;51.304;6.866;2023-03-23T19:19:45;12.50;99.90
25128;DHT22;13107;51.304;6.866;2023-03-23T19:23:46;12.50;99.90
25128;DHT22;13107;51.304;6.866;2023-03-23T19:27:49;12.50;99.90
25128;DHT22;13107;51.304;6.866;2023-03-23T19:31:55;12.50;99.90
25128;DHT22;13107;51.304;6.866;2023-03-23T19:35:57;12.70;99.90
25128;DHT22;13107;51.304;6.866;2023-03-23T19:40:12;12.90;99.90
25128;DHT22;13107;51.304;6.866;2023-03-23T19:44:34;13.00;99.90
25128;DHT22;13107;51.304;6.866;2023-03-23T19:48:36;13.10;99.90
25128;DHT22;13107;51.304;6.866;2023-03-23T19:52:40;12.90;99.90
25128;DHT22;13107;51.304;6.866;2023-03-23T19:56:42;12.90;99.90
25128;DHT22;13107;51.304;6.866;2023-03-23T20:00:44;12.80;99.90
25128;DHT22;13107;51.304;6.866;2023-03-23T20:04:46;12.80;99.90
25128;DHT22;13107;51.304;6.866;2023-03-23T20:08:48;12.80;99.90
25128;DHT22;13107;51.304;6.866;2023-03-23T20:12:50;12.80;99.90
25128;DHT22;13107;51.304;6.866;2023-03-23T20:16:52;12.80;99.90
25128;DHT22;13107;51.304;6.866;2023-03-23T20:21:01;12.90;99.90
25128;DHT22;13107;51.304;6.866;2023-03-23T20:25:04;12.90;99.90
25128;DHT22;13107;51.304;6.866;2023-03-23T20:29:08;13.00;99.90
25128;DHT22;13107;51.304;6.866;2023-03-23T20:33:11;13.00;99.90
25128;DHT22;13107;51.304;6.866;2023-03-23T20:37:12;13.10;99.90
25128;DHT22;13107;51.304;6.866;2023-03-23T20:41:16;13.00;99.90
25128;DHT22;13107;51.304;6.866;2023-03-23T20:45:19;13.00;99.90
25128;DHT22;13107;51.304;6.866;2023-03-23T20:49:21;13.00;99.90
25128;DHT22;13107;51.304;6.866;2023-03-23T20:53:24;13.00;99.90
25128;DHT22;13107;51.304;6.866;2023-03-23T20:57:26;13.10;99.90
25128;DHT22;13107;51.304;6.866;2023-03-23T21:01:29;13.10;99.90
25128;DHT22;13107;51.304;6.866;2023-03-23T21:05:34;13.10;99.90
25128;DHT22;13107;51.304;6.866;2023-03-23T21:09:36;13.10;99.90
25128;DHT22;13107;51.304;6.866;2023-03-23T21:13:37;13.20;99.90
25128;DHT22;13107;51.304;6.866;2023-03-23T21:17:39;13.20;99.90
25128;DHT22;13107;51.304;6.866;2023-03-23T21:21:42;13.00;99.90
25128;DHT22;13107;51.304;6.866;2023-03-23T21:26:02;12.90;99.90
25128;DHT22;13107;51.304;6.866;2023-03-23T21:30:05;12.80;99.90
25128;DHT22;13107;51.304;6.866;2023-03-23T21:34:07;12.60;99.90
25128;DHT22;13107;51.304;6.866;2023-03-23T21:38:09;12.50;99.90
25128;DHT22;13107;51.304;6.866;2023-03-23T21:42:14;12.50;99.90
25128;DHT22;13107;51.304;6.866;2023-03-23T21:46:16;12.50;99.90
25128;DHT22;13107;51.304;6.866;2023-03-23T21:50:18;12.50;99.90
25128;DHT22;13107;51.304;6.866;2023-03-23T21:54:22;12.40;99.90
25128;DHT22;13107;51.304;6.866;2023-03-23T21:58:24;12.40;99.90
25128;DHT22;13107;51.304;6.866;2023-03-23T22:02:29;12.40;99.90
25128;DHT22;13107;51.304;6.866;2023-03-23T22:06:31;12.30;99.90
25128;DHT22;13107;51.304;6.866;2023-03-23T22:10:39;12.40;99.90
25128;DHT22;13107;51.304;6.866;2023-03-23T22:14:42;12.40;99.90
25128;DHT22;13107;51.304;6.866;2023-03-23T22:18:44;12.30;99.90
25128;DHT22;13107;51.304;6.866;2023-03-23T22:22:47;12.30;99.90
25128;DHT22;13107;51.304;6.866;2023-03-23T22:26:49;12.20;99.90
25128;DHT22;13107;51.304;6.866;2023-03-23T22:31:02;12.20;99.90
25128;DHT22;13107;51.304;6.866;2023-03-23T22:35:05;12.20;99.90
25128;DHT22;13107;51.304;6.866;2023-03-23T22:39:08;12.10;99.90
25128;DHT22;13107;51.304;6.866;2023-03-23T22:43:10;12.10;99.90
25128;DHT22;13107;51.304;6.866;2023-03-23T22:47:12;12.00;99.90
25128;DHT22;13107;51.304;6.866;2023-03-23T22:51:15;11.90;99.90
25128;DHT22;13107;51.304;6.866;2023-03-23T22:55:18;11.90;99.90
25128;DHT22;13107;51.304;6.866;2023-03-23T22:59:20;11.80;99.90
25128;DHT22;13107;51.304;6.866;2023-03-23T23:03:22;11.80;99.90
25128;DHT22;13107;51.304;6.866;2023-03-23T23:07:24;11.70;99.90
25128;DHT22;13107;51.304;6.866;2023-03-23T23:11:26;11.70;99.90
25128;DHT22;13107;51.304;6.866;2023-03-23T23:15:28;11.60;99.90
25128;DHT22;13107;51.304;6.866;2023-03-23T23:19:30;11.60;99.90
25128;DHT22;13107;51.304;6.866;2023-03-23T23:23:32;11.60;99.90
25128;DHT22;13107;51.304;6.866;2023-03-23T23:27:35;11.60;99.90
25128;DHT22;13107;51.304;6.866;2023-03-23T23:31:37;11.50;99.90
25128;DHT22;13107;51.304;6.866;2023-03-23T23:35:39;11.50;99.90
25128;DHT22;13107;51.304;6.866;2023-03-23T23:39:41;11.50;99.90
25128;DHT22;13107;51.304;6.866;2023-03-23T23:43:43;11.60;99.90
25128;DHT22;13107;51.304;6.866;2023-03-23T23:47:45;11.50;99.90
25128;DHT22;13107;51.304;6.866;2023-03-23T23:51:47;11.50;99.90
25128;DHT22;13107;51.304;6.866;2023-03-23T23:55:49;11.50;99.90
25128;DHT22;13107;51.304;6.866;2023-03-23T23:59:51;11.50;99.90
